Time;durP1;ratioP1;P1;durP2;ratioP2;P2;SDS_P1;SDS_P2;PMS_P1;PMS_P2;Temp;Humidity;BMP_temperature;BMP_pressure;BME280_temperature;BME280_humidity;BME280_pressure;Samples;Min_cycle;Max_cycle;Signal;HPM_P1;HPM_P2
2020/10/10 00:01:53;;;;;;;10.55;7.750001;;;;;;;10.11;89.5957;95454.11;;;;
2020/10/10 00:02:55;;;;;;;10.55;7.750001;;;;;;;10.11;89.5957;95454.11;;;;
2020/10/10 00:03:59;;;;;;;10.55;7.750001;;;;;;;10.11;89.5957;95454.11;;;;
2020/10/10 00:05:00;;;;;;;10.55;7.750001;;;;;;;10.11;89.5957;95454.11;;;;
2020/10/10 00:06:00;;;;;;;8.7;7.599999;;;;;;;10.01;90.1709;95461.91;;;;
2020/10/10 00:07:06;;;;;;;8.7;7.599999;;;;;;;10.01;90.1709;95461.91;;;;
2020/10/10 00:08:15;;;;;;;8.7;7.599999;;;;;;;10.01;90.1709;95461.91;;;;
2020/10/10 00:09:16;;;;;;;8.7;7.599999;;;;;;;10.01;90.1709;95461.91;;;;
2020/10/10 00:10:42;;;;;;;8.7;7.599999;;;;;;;10.01;90.1709;95461.91;;;;
2020/10/10 00:11:43;;;;;;;8.7;7.599999;;;;;;;10.01;90.1709;95461.91;;;;
2020/10/10 00:12:44;;;;;;;8.7;7.599999;;;;;;;10.01;90.1709;95461.91;;;;
2020/10/10 00:13:44;;;;;;;8.7;7.599999;;;;;;;10.01;90.1709;95461.91;;;;
2020/10/10 00:14:45;;;;;;;8.7;7.599999;;;;;;;10.01;90.1709;95461.91;;;;
2020/10/10 00:15:50;;;;;;;8.7;7.599999;;;;;;;10.01;90.1709;95461.91;;;;
2020/10/10 00:16:51;;;;;;;10.15;8.1;;;;;;;9.92;90.7168;95448.95;;;;
2020/10/10 00:17:51;;;;;;;10.15;8.1;;;;;;;9.92;90.7168;95448.95;;;;
2020/10/10 00:19:24;;;;;;;10.15;8.1;;;;;;;9.92;90.7168;95448.95;;;;
2020/10/10 00:20:24;;;;;;;10.15;8.1;;;;;;;9.92;90.7168;95448.95;;;;
2020/10/10 00:21:25;;;;;;;10.15;8.1;;;;;;;9.92;90.7168;95448.95;;;;
2020/10/10 00:22:25;;;;;;;10.15;8.1;;;;;;;9.92;90.7168;95448.95;;;;
2020/10/10 00:23:26;;;;;;;10.15;8.1;;;;;;;9.92;90.7168;95448.95;;;;
2020/10/10 00:24:27;;;;;;;10.15;8.1;;;;;;;9.92;90.7168;95448.95;;;;
2020/10/10 00:25:28;;;;;;;10.15;8.1;;;;;;;9.92;90.7168;95448.95;;;;
2020/10/10 00:26:29;;;;;;;10.15;8.1;;;;;;;9.92;90.7168;95448.95;;;;
2020/10/10 00:27:31;;;;;;;12.45;8.5;;;;;;;9.94;91.01855;95449.45;;;;
2020/10/10 00:28:32;;;;;;;12.45;8.5;;;;;;;9.94;91.01855;95449.45;;;;
2020/10/10 00:29:32;;;;;;;12.45;8.5;;;;;;;9.94;91.01855;95449.45;;;;
2020/10/10 00:30:33;;;;;;;12.45;8.5;;;;;;;9.94;91.01855;95449.45;;;;
2020/10/10 00:31:35;;;;;;;12.45;8.5;;;;;;;9.94;91.01855;95449.45;;;;
2020/10/10 00:32:41;;;;;;;12.45;8.5;;;;;;;9.94;91.01855;95449.45;;;;
2020/10/10 00:33:42;;;;;;;12.45;8.5;;;;;;;9.94;91.01855;95449.45;;;;
2020/10/10 00:34:43;;;;;;;12.45;8.5;;;;;;;9.94;91.01855;95449.45;;;;
2020/10/10 00:35:44;;;;;;;12.45;8.5;;;;;;;9.94;91.01855;95449.45;;;;
2020/10/10 00:36:48;;;;;;;12.45;8.5;;;;;;;9.94;91.01855;95449.45;;;;
2020/10/10 00:37:48;;;;;;;12.45;8.5;;;;;;;9.94;91.01855;95449.45;;;;
2020/10/10 00:38:49;;;;;;;12.45;9.299998;;;;;;;9.93;91.20996;95447.79;;;;
2020/10/10 00:39:49;;;;;;;12.45;9.299998;;;;;;;9.93;91.20996;95447.79;;;;
2020/10/10 00:40:53;;;;;;;12.45;9.299998;;;;;;;9.93;91.20996;95447.79;;;;
2020/10/10 00:41:59;;;;;;;12.45;9.299998;;;;;;;9.93;91.20996;95447.79;;;;
2020/10/10 00:43:00;;;;;;;12.45;9.299998;;;;;;;9.93;91.20996;95447.79;;;;
2020/10/10 00:44:01;;;;;;;12.45;9.299998;;;;;;;9.93;91.20996;95447.79;;;;
2020/10/10 00:45:01;;;;;;;12.45;9.299998;;;;;;;9.93;91.20996;95447.79;;;;
2020/10/10 00:46:02;;;;;;;12.45;9.299998;;;;;;;9.93;91.20996;95447.79;;;;
2020/10/10 00:47:05;;;;;;;12.45;9.299998;;;;;;;9.93;91.20996;95447.79;;;;
2020/10/10 00:48:12;;;;;;;12.45;9.299998;;;;;;;9.93;91.20996;95447.79;;;;
2020/10/10 00:49:13;;;;;;;13.85;9.500002;;;;;;;10.03;91.48438;95442.69;;;;
2020/10/10 00:50:13;;;;;;;13.85;9.500002;;;;;;;10.03;91.48438;95442.69;;;;
2020/10/10 00:51:15;;;;;;;13.85;9.500002;;;;;;;10.03;91.48438;95442.69;;;;
2020/10/10 00:52:17;;;;;;;13.85;9.500002;;;;;;;10.03;91.48438;95442.69;;;;
2020/10/10 00:53:17;;;;;;;13.85;9.500002;;;;;;;10.03;91.48438;95442.69;;;;
2020/10/10 00:54:19;;;;;;;13.85;9.500002;;;;;;;10.03;91.48438;95442.69;;;;
2020/10/10 00:55:19;;;;;;;13.85;9.500002;;;;;;;10.03;91.48438;95442.69;;;;
2020/10/10 00:56:20;;;;;;;13.85;9.500002;;;;;;;10.03;91.48438;95442.69;;;;
2020/10/10 00:57:20;;;;;;;13.85;9.500002;;;;;;;10.03;91.48438;95442.69;;;;
2020/10/10 00:58:21;;;;;;;13.85;9.500002;;;;;;;10.03;91.48438;95442.69;;;;
2020/10/10 00:59:24;;;;;;;11.9;9.000002;;;;;;;10.06;91.60742;95439.11;;;;
2020/10/10 01:00:24;;;;;;;11.9;9.000002;;;;;;;10.06;91.60742;95439.11;;;;
2020/10/10 01:02:30;;;;;;;11.9;9.000002;;;;;;;10.06;91.60742;95439.11;;;;
2020/10/10 01:03:30;;;;;;;11.9;9.000002;;;;;;;10.06;91.60742;95439.11;;;;
2020/10/10 01:04:32;;;;;;;11.9;9.000002;;;;;;;10.06;91.60742;95439.11;;;;
2020/10/10 01:05:33;;;;;;;11.9;9.000002;;;;;;;10.06;91.60742;95439.11;;;;
2020/10/10 01:06:33;;;;;;;11.9;9.000002;;;;;;;10.06;91.60742;95439.11;;;;
2020/10/10 01:07:34;;;;;;;11.9;9.000002;;;;;;;10.06;91.60742;95439.11;;;;
2020/10/10 01:08:34;;;;;;;11.9;9.000002;;;;;;;10.06;91.60742;95439.11;;;;
2020/10/10 01:09:35;;;;;;;11.9;9.000002;;;;;;;10.06;91.60742;95439.11;;;;
2020/10/10 01:10:36;;;;;;;12.7;9.099998;;;;;;;10.1;91.80664;95431.83;;;;
2020/10/10 01:11:38;;;;;;;12.7;9.099998;;;;;;;10.1;91.80664;95431.83;;;;
2020/10/10 01:12:46;;;;;;;12.7;9.099998;;;;;;;10.1;91.80664;95431.83;;;;
2020/10/10 01:13:50;;;;;;;12.7;9.099998;;;;;;;10.1;91.80664;95431.83;;;;
2020/10/10 01:14:51;;;;;;;12.7;9.099998;;;;;;;10.1;91.80664;95431.83;;;;
2020/10/10 01:15:51;;;;;;;12.7;9.099998;;;;;;;10.1;91.80664;95431.83;;;;
2020/10/10 01:16:58;;;;;;;12.7;9.099998;;;;;;;10.1;91.80664;95431.83;;;;
2020/10/10 01:18:01;;;;;;;12.7;9.099998;;;;;;;10.1;91.80664;95431.83;;;;
2020/10/10 01:19:25;;;;;;;12.7;9.099998;;;;;;;10.1;91.80664;95431.83;;;;
2020/10/10 01:20:25;;;;;;;12.7;9.099998;;;;;;;10.1;91.80664;95431.83;;;;
2020/10/10 01:21:26;;;;;;;13.4;9.85;;;;;;;10.01;92.07422;95424.66;;;;
2020/10/10 01:22:27;;;;;;;13.4;9.85;;;;;;;10.01;92.07422;95424.66;;;;
2020/10/10 01:23:28;;;;;;;13.4;9.85;;;;;;;10.01;92.07422;95424.66;;;;
2020/10/10 01:24:40;;;;;;;13.4;9.85;;;;;;;10.01;92.07422;95424.66;;;;
2020/10/10 01:25:42;;;;;;;13.4;9.85;;;;;;;10.01;92.07422;95424.66;;;;
2020/10/10 01:26:43;;;;;;;13.4;9.85;;;;;;;10.01;92.07422;95424.66;;;;
2020/10/10 01:27:44;;;;;;;13.4;9.85;;;;;;;10.01;92.07422;95424.66;;;;
2020/10/10 01:28:44;;;;;;;13.4;9.85;;;;;;;10.01;92.07422;95424.66;;;;
2020/10/10 01:29:47;;;;;;;13.4;9.85;;;;;;;10.01;92.07422;95424.66;;;;
2020/10/10 01:30:48;;;;;;;13.4;9.85;;;;;;;10.01;92.07422;95424.66;;;;
2020/10/10 01:31:48;;;;;;;11.6;9.150001;;;;;;;9.94;92.49609;95416.67;;;;
2020/10/10 01:32:49;;;;;;;11.6;9.150001;;;;;;;9.94;92.49609;95416.67;;;;
2020/10/10 01:33:49;;;;;;;11.6;9.150001;;;;;;;9.94;92.49609;95416.67;;;;
2020/10/10 01:34:51;;;;;;;11.6;9.150001;;;;;;;9.94;92.49609;95416.67;;;;
2020/10/10 01:35:54;;;;;;;11.6;9.150001;;;;;;;9.94;92.49609;95416.67;;;;
2020/10/10 01:36:54;;;;;;;11.6;9.150001;;;;;;;9.94;92.49609;95416.67;;;;
2020/10/10 01:38:10;;;;;;;11.6;9.150001;;;;;;;9.94;92.49609;95416.67;;;;
2020/10/10 01:39:23;;;;;;;11.6;9.150001;;;;;;;9.94;92.49609;95416.67;;;;
2020/10/10 01:40:41;;;;;;;11.6;9.150001;;;;;;;9.94;92.49609;95416.67;;;;
2020/10/10 01:41:41;;;;;;;11.6;9.150001;;;;;;;9.94;92.49609;95416.67;;;;
2020/10/10 01:42:47;;;;;;;13.95;10.05;;;;;;;9.85;92.87988;95427.06;;;;
2020/10/10 01:43:56;;;;;;;13.95;10.05;;;;;;;9.85;92.87988;95427.06;;;;
2020/10/10 01:44:56;;;;;;;13.95;10.05;;;;;;;9.85;92.87988;95427.06;;;;
2020/10/10 01:45:59;;;;;;;13.95;10.05;;;;;;;9.85;92.87988;95427.06;;;;
2020/10/10 01:46:59;;;;;;;13.95;10.05;;;;;;;9.85;92.87988;95427.06;;;;
2020/10/10 01:47:59;;;;;;;13.95;10.05;;;;;;;9.85;92.87988;95427.06;;;;
2020/10/10 01:49:00;;;;;;;13.95;10.05;;;;;;;9.85;92.87988;95427.06;;;;
2020/10/10 01:50:00;;;;;;;13.95;10.05;;;;;;;9.85;92.87988;95427.06;;;;
2020/10/10 01:51:01;;;;;;;13.95;10.05;;;;;;;9.85;92.87988;95427.06;;;;
2020/10/10 01:52:04;;;;;;;13.95;10.05;;;;;;;9.85;92.87988;95427.06;;;;
2020/10/10 01:53:04;;;;;;;10.6;8.25;;;;;;;9.87;93.18262;95410.55;;;;
2020/10/10 01:54:05;;;;;;;10.6;8.25;;;;;;;9.87;93.18262;95410.55;;;;
2020/10/10 01:55:06;;;;;;;10.6;8.25;;;;;;;9.87;93.18262;95410.55;;;;
2020/10/10 01:56:12;;;;;;;10.6;8.25;;;;;;;9.87;93.18262;95410.55;;;;
2020/10/10 01:57:12;;;;;;;10.6;8.25;;;;;;;9.87;93.18262;95410.55;;;;
2020/10/10 01:58:15;;;;;;;10.6;8.25;;;;;;;9.87;93.18262;95410.55;;;;
2020/10/10 01:59:15;;;;;;;10.6;8.25;;;;;;;9.87;93.18262;95410.55;;;;
2020/10/10 02:00:17;;;;;;;10.6;8.25;;;;;;;9.87;93.18262;95410.55;;;;
2020/10/10 02:01:24;;;;;;;10.6;8.25;;;;;;;9.87;93.18262;95410.55;;;;
2020/10/10 02:02:25;;;;;;;10.6;8.25;;;;;;;9.87;93.18262;95410.55;;;;
2020/10/10 02:03:25;;;;;;;11.75;8.000002;;;;;;;9.76;93.28613;95421.26;;;;
2020/10/10 02:04:37;;;;;;;11.75;8.000002;;;;;;;9.76;93.28613;95421.26;;;;
2020/10/10 02:05:37;;;;;;;11.75;8.000002;;;;;;;9.76;93.28613;95421.26;;;;
2020/10/10 02:06:38;;;;;;;11.75;8.000002;;;;;;;9.76;93.28613;95421.26;;;;
2020/10/10 02:07:39;;;;;;;11.75;8.000002;;;;;;;9.76;93.28613;95421.26;;;;
2020/10/10 02:08:40;;;;;;;11.75;8.000002;;;;;;;9.76;93.28613;95421.26;;;;
2020/10/10 02:09:41;;;;;;;11.75;8.000002;;;;;;;9.76;93.28613;95421.26;;;;
2020/10/10 02:10:58;;;;;;;11.75;8.000002;;;;;;;9.76;93.28613;95421.26;;;;
2020/10/10 02:11:59;;;;;;;11.75;8.000002;;;;;;;9.76;93.28613;95421.26;;;;
2020/10/10 02:13:00;;;;;;;11.75;8.000002;;;;;;;9.76;93.28613;95421.26;;;;
2020/10/10 02:14:02;;;;;;;8.899999;7.500001;;;;;;;9.61;93.61523;95420.31;;;;
2020/10/10 02:15:22;;;;;;;8.899999;7.500001;;;;;;;9.61;93.61523;95420.31;;;;
2020/10/10 02:16:24;;;;;;;8.899999;7.500001;;;;;;;9.61;93.61523;95420.31;;;;
2020/10/10 02:17:28;;;;;;;8.899999;7.500001;;;;;;;9.61;93.61523;95420.31;;;;
2020/10/10 02:18:30;;;;;;;8.899999;7.500001;;;;;;;9.61;93.61523;95420.31;;;;
2020/10/10 02:19:31;;;;;;;8.899999;7.500001;;;;;;;9.61;93.61523;95420.31;;;;
2020/10/10 02:20:35;;;;;;;8.899999;7.500001;;;;;;;9.61;93.61523;95420.31;;;;
2020/10/10 02:21:36;;;;;;;8.899999;7.500001;;;;;;;9.61;93.61523;95420.31;;;;
2020/10/10 02:22:37;;;;;;;8.899999;7.500001;;;;;;;9.61;93.61523;95420.31;;;;
2020/10/10 02:23:55;;;;;;;8.899999;7.500001;;;;;;;9.61;93.61523;95420.31;;;;
2020/10/10 02:24:55;;;;;;;11.65;7.849999;;;;;;;9.36;93.9209;95419.17;;;;
2020/10/10 02:25:56;;;;;;;11.65;7.849999;;;;;;;9.36;93.9209;95419.17;;;;
2020/10/10 02:26:59;;;;;;;11.65;7.849999;;;;;;;9.36;93.9209;95419.17;;;;
2020/10/10 02:28:00;;;;;;;11.65;7.849999;;;;;;;9.36;93.9209;95419.17;;;;
2020/10/10 02:29:00;;;;;;;11.65;7.849999;;;;;;;9.36;93.9209;95419.17;;;;
2020/10/10 02:30:22;;;;;;;11.65;7.849999;;;;;;;9.36;93.9209;95419.17;;;;
2020/10/10 02:31:22;;;;;;;11.65;7.849999;;;;;;;9.36;93.9209;95419.17;;;;
2020/10/10 02:32:25;;;;;;;11.65;7.849999;;;;;;;9.36;93.9209;95419.17;;;;
2020/10/10 02:33:26;;;;;;;11.65;7.849999;;;;;;;9.36;93.9209;95419.17;;;;
2020/10/10 02:34:31;;;;;;;11.65;7.849999;;;;;;;9.36;93.9209;95419.17;;;;
2020/10/10 02:35:32;;;;;;;12.85;7.949999;;;;;;;9.14;94.20508;95417.44;;;;
2020/10/10 02:36:33;;;;;;;12.85;7.949999;;;;;;;9.14;94.20508;95417.44;;;;
2020/10/10 02:37:33;;;;;;;12.85;7.949999;;;;;;;9.14;94.20508;95417.44;;;;
2020/10/10 02:38:34;;;;;;;12.85;7.949999;;;;;;;9.14;94.20508;95417.44;;;;
2020/10/10 02:39:56;;;;;;;12.85;7.949999;;;;;;;9.14;94.20508;95417.44;;;;
2020/10/10 02:40:57;;;;;;;12.85;7.949999;;;;;;;9.14;94.20508;95417.44;;;;
2020/10/10 02:41:57;;;;;;;12.85;7.949999;;;;;;;9.14;94.20508;95417.44;;;;
2020/10/10 02:42:59;;;;;;;12.85;7.949999;;;;;;;9.14;94.20508;95417.44;;;;
2020/10/10 02:44:00;;;;;;;12.85;7.949999;;;;;;;9.14;94.20508;95417.44;;;;
2020/10/10 02:45:01;;;;;;;12.85;7.949999;;;;;;;9.14;94.20508;95417.44;;;;
2020/10/10 02:46:04;;;;;;;8.599999;6.600001;;;;;;;8.85;94.44727;95415.08;;;;
2020/10/10 02:47:05;;;;;;;8.599999;6.600001;;;;;;;8.85;94.44727;95415.08;;;;
2020/10/10 02:48:05;;;;;;;8.599999;6.600001;;;;;;;8.85;94.44727;95415.08;;;;
2020/10/10 02:49:06;;;;;;;8.599999;6.600001;;;;;;;8.85;94.44727;95415.08;;;;
2020/10/10 02:50:07;;;;;;;8.599999;6.600001;;;;;;;8.85;94.44727;95415.08;;;;
2020/10/10 02:51:08;;;;;;;8.599999;6.600001;;;;;;;8.85;94.44727;95415.08;;;;
2020/10/10 02:52:08;;;;;;;8.599999;6.600001;;;;;;;8.85;94.44727;95415.08;;;;
2020/10/10 02:53:09;;;;;;;8.599999;6.600001;;;;;;;8.85;94.44727;95415.08;;;;
2020/10/10 02:54:12;;;;;;;8.599999;6.600001;;;;;;;8.85;94.44727;95415.08;;;;
2020/10/10 02:55:13;;;;;;;8.599999;6.600001;;;;;;;8.85;94.44727;95415.08;;;;
2020/10/10 02:56:13;;;;;;;8.599999;6.600001;;;;;;;8.85;94.44727;95415.08;;;;
2020/10/10 02:57:14;;;;;;;10.6;7.65;;;;;;;8.7;94.75586;95410.03;;;;
2020/10/10 02:58:15;;;;;;;10.6;7.65;;;;;;;8.7;94.75586;95410.03;;;;
2020/10/10 02:59:16;;;;;;;10.6;7.65;;;;;;;8.7;94.75586;95410.03;;;;
2020/10/10 03:00:16;;;;;;;10.6;7.65;;;;;;;8.7;94.75586;95410.03;;;;
2020/10/10 03:01:47;;;;;;;10.6;7.65;;;;;;;8.7;94.75586;95410.03;;;;
2020/10/10 03:03:57;;;;;;;10.6;7.65;;;;;;;8.7;94.75586;95410.03;;;;
2020/10/10 03:04:58;;;;;;;10.6;7.65;;;;;;;8.7;94.75586;95410.03;;;;
2020/10/10 03:05:58;;;;;;;10.6;7.65;;;;;;;8.7;94.75586;95410.03;;;;
2020/10/10 03:07:03;;;;;;;10.6;7.65;;;;;;;8.7;94.75586;95410.03;;;;
2020/10/10 03:13:12;;;;;;;12.8;9.35;;;;;;;8.54;94.7207;95415.05;;;;
2020/10/10 03:14:14;;;;;;;12.8;9.35;;;;;;;8.54;94.7207;95415.05;;;;
2020/10/10 03:15:16;;;;;;;12.8;9.35;;;;;;;8.54;94.7207;95415.05;;;;
2020/10/10 03:16:35;;;;;;;12.8;9.35;;;;;;;8.54;94.7207;95415.05;;;;
2020/10/10 03:17:35;;;;;;;12.8;9.35;;;;;;;8.54;94.7207;95415.05;;;;
2020/10/10 03:18:36;;;;;;;13.4;8.650001;;;;;;;8.48;94.86719;95399.77;;;;
2020/10/10 03:19:36;;;;;;;13.4;8.650001;;;;;;;8.48;94.86719;95399.77;;;;
2020/10/10 03:20:37;;;;;;;13.4;8.650001;;;;;;;8.48;94.86719;95399.77;;;;
2020/10/10 03:21:38;;;;;;;13.4;8.650001;;;;;;;8.48;94.86719;95399.77;;;;
2020/10/10 03:22:48;;;;;;;13.4;8.650001;;;;;;;8.48;94.86719;95399.77;;;;
2020/10/10 03:23:49;;;;;;;13.4;8.650001;;;;;;;8.48;94.86719;95399.77;;;;
2020/10/10 03:24:51;;;;;;;13.4;8.650001;;;;;;;8.48;94.86719;95399.77;;;;
2020/10/10 03:25:51;;;;;;;13.4;8.650001;;;;;;;8.48;94.86719;95399.77;;;;
2020/10/10 03:26:52;;;;;;;13.4;8.650001;;;;;;;8.48;94.86719;95399.77;;;;
2020/10/10 03:27:53;;;;;;;13.4;8.650001;;;;;;;8.48;94.86719;95399.77;;;;
2020/10/10 03:28:54;;;;;;;20.5;13.2;;;;;;;8.46;95.07324;95385.29;;;;
2020/10/10 03:29:55;;;;;;;20.5;13.2;;;;;;;8.46;95.07324;95385.29;;;;
2020/10/10 03:30:55;;;;;;;20.5;13.2;;;;;;;8.46;95.07324;95385.29;;;;
2020/10/10 03:31:56;;;;;;;20.5;13.2;;;;;;;8.46;95.07324;95385.29;;;;
2020/10/10 03:32:56;;;;;;;20.5;13.2;;;;;;;8.46;95.07324;95385.29;;;;
2020/10/10 03:33:57;;;;;;;20.5;13.2;;;;;;;8.46;95.07324;95385.29;;;;
2020/10/10 03:34:58;;;;;;;20.5;13.2;;;;;;;8.46;95.07324;95385.29;;;;
2020/10/10 03:35:58;;;;;;;20.5;13.2;;;;;;;8.46;95.07324;95385.29;;;;
2020/10/10 03:36:59;;;;;;;20.5;13.2;;;;;;;8.46;95.07324;95385.29;;;;
2020/10/10 03:38:00;;;;;;;20.5;13.2;;;;;;;8.46;95.07324;95385.29;;;;
2020/10/10 03:39:00;;;;;;;20.5;13.2;;;;;;;8.46;95.07324;95385.29;;;;
2020/10/10 03:40:01;;;;;;;19.7;13.65;;;;;;;8.63;95.17578;95397.58;;;;
2020/10/10 03:41:01;;;;;;;19.7;13.65;;;;;;;8.63;95.17578;95397.58;;;;
2020/10/10 03:42:04;;;;;;;19.7;13.65;;;;;;;8.63;95.17578;95397.58;;;;
2020/10/10 03:43:11;;;;;;;19.7;13.65;;;;;;;8.63;95.17578;95397.58;;;;
2020/10/10 03:44:13;;;;;;;19.7;13.65;;;;;;;8.63;95.17578;95397.58;;;;
2020/10/10 03:45:13;;;;;;;19.7;13.65;;;;;;;8.63;95.17578;95397.58;;;;
2020/10/10 03:46:39;;;;;;;19.7;13.65;;;;;;;8.63;95.17578;95397.58;;;;
2020/10/10 03:47:40;;;;;;;19.7;13.65;;;;;;;8.63;95.17578;95397.58;;;;
2020/10/10 03:48:41;;;;;;;19.7;13.65;;;;;;;8.63;95.17578;95397.58;;;;
2020/10/10 03:49:44;;;;;;;19.7;13.65;;;;;;;8.63;95.17578;95397.58;;;;
2020/10/10 03:50:45;;;;;;;17.6;12.05;;;;;;;8.71;95.18164;95397.28;;;;
2020/10/10 03:51:49;;;;;;;17.6;12.05;;;;;;;8.71;95.18164;95397.28;;;;
2020/10/10 03:52:50;;;;;;;17.6;12.05;;;;;;;8.71;95.18164;95397.28;;;;
2020/10/10 03:53:50;;;;;;;17.6;12.05;;;;;;;8.71;95.18164;95397.28;;;;
2020/10/10 03:54:51;;;;;;;17.6;12.05;;;;;;;8.71;95.18164;95397.28;;;;
2020/10/10 03:55:52;;;;;;;17.6;12.05;;;;;;;8.71;95.18164;95397.28;;;;
2020/10/10 03:56:58;;;;;;;17.6;12.05;;;;;;;8.71;95.18164;95397.28;;;;
2020/10/10 03:57:58;;;;;;;17.6;12.05;;;;;;;8.71;95.18164;95397.28;;;;
2020/10/10 03:58:59;;;;;;;17.6;12.05;;;;;;;8.71;95.18164;95397.28;;;;
2020/10/10 03:59:59;;;;;;;17.6;12.05;;;;;;;8.71;95.18164;95397.28;;;;
2020/10/10 04:01:00;;;;;;;17.4;12.05;;;;;;;8.82;95.49023;95387.64;;;;
2020/10/10 04:02:25;;;;;;;17.4;12.05;;;;;;;8.82;95.49023;95387.64;;;;
2020/10/10 04:03:44;;;;;;;17.4;12.05;;;;;;;8.82;95.49023;95387.64;;;;
2020/10/10 04:05:00;;;;;;;17.4;12.05;;;;;;;8.82;95.49023;95387.64;;;;
2020/10/10 04:06:01;;;;;;;17.4;12.05;;;;;;;8.82;95.49023;95387.64;;;;
2020/10/10 04:07:01;;;;;;;17.4;12.05;;;;;;;8.82;95.49023;95387.64;;;;
2020/10/10 04:08:09;;;;;;;17.4;12.05;;;;;;;8.82;95.49023;95387.64;;;;
2020/10/10 04:09:10;;;;;;;17.4;12.05;;;;;;;8.82;95.49023;95387.64;;;;
2020/10/10 04:10:21;;;;;;;17.4;12.05;;;;;;;8.82;95.49023;95387.64;;;;
2020/10/10 04:11:22;;;;;;;18.8;10.6;;;;;;;8.77;95.43945;95377.56;;;;
2020/10/10 04:12:22;;;;;;;18.8;10.6;;;;;;;8.77;95.43945;95377.56;;;;
2020/10/10 04:13:23;;;;;;;18.8;10.6;;;;;;;8.77;95.43945;95377.56;;;;
2020/10/10 04:14:24;;;;;;;18.8;10.6;;;;;;;8.77;95.43945;95377.56;;;;
2020/10/10 04:15:25;;;;;;;18.8;10.6;;;;;;;8.77;95.43945;95377.56;;;;
2020/10/10 04:16:25;;;;;;;18.8;10.6;;;;;;;8.77;95.43945;95377.56;;;;
2020/10/10 04:17:26;;;;;;;18.8;10.6;;;;;;;8.77;95.43945;95377.56;;;;
2020/10/10 04:18:27;;;;;;;18.8;10.6;;;;;;;8.77;95.43945;95377.56;;;;
2020/10/10 04:19:27;;;;;;;18.8;10.6;;;;;;;8.77;95.43945;95377.56;;;;
2020/10/10 04:20:29;;;;;;;18.8;10.6;;;;;;;8.77;95.43945;95377.56;;;;
2020/10/10 04:21:30;;;;;;;18.8;10.6;;;;;;;8.77;95.43945;95377.56;;;;
2020/10/10 04:22:30;;;;;;;15.55;10.2;;;;;;;8.67;95.5625;95381.81;;;;
2020/10/10 04:23:35;;;;;;;15.55;10.2;;;;;;;8.67;95.5625;95381.81;;;;
2020/10/10 04:24:36;;;;;;;15.55;10.2;;;;;;;8.67;95.5625;95381.81;;;;
2020/10/10 04:25:53;;;;;;;15.55;10.2;;;;;;;8.67;95.5625;95381.81;;;;
2020/10/10 04:26:54;;;;;;;15.55;10.2;;;;;;;8.67;95.5625;95381.81;;;;
2020/10/10 04:27:54;;;;;;;15.55;10.2;;;;;;;8.67;95.5625;95381.81;;;;
2020/10/10 04:28:55;;;;;;;15.55;10.2;;;;;;;8.67;95.5625;95381.81;;;;
2020/10/10 04:29:56;;;;;;;15.55;10.2;;;;;;;8.67;95.5625;95381.81;;;;
2020/10/10 04:30:58;;;;;;;15.55;10.2;;;;;;;8.67;95.5625;95381.81;;;;
2020/10/10 04:31:58;;;;;;;15.55;10.2;;;;;;;8.67;95.5625;95381.81;;;;
2020/10/10 04:33:00;;;;;;;15.75;9.849999;;;;;;;8.45;95.76074;95376.39;;;;
2020/10/10 04:34:00;;;;;;;15.75;9.849999;;;;;;;8.45;95.76074;95376.39;;;;
2020/10/10 04:35:01;;;;;;;15.75;9.849999;;;;;;;8.45;95.76074;95376.39;;;;
2020/10/10 04:36:02;;;;;;;15.75;9.849999;;;;;;;8.45;95.76074;95376.39;;;;
2020/10/10 04:37:03;;;;;;;15.75;9.849999;;;;;;;8.45;95.76074;95376.39;;;;
2020/10/10 04:38:04;;;;;;;15.75;9.849999;;;;;;;8.45;95.76074;95376.39;;;;
2020/10/10 04:39:05;;;;;;;15.75;9.849999;;;;;;;8.45;95.76074;95376.39;;;;
2020/10/10 04:40:23;;;;;;;15.75;9.849999;;;;;;;8.45;95.76074;95376.39;;;;
2020/10/10 04:41:27;;;;;;;15.75;9.849999;;;;;;;8.45;95.76074;95376.39;;;;
2020/10/10 04:42:28;;;;;;;15.75;9.849999;;;;;;;8.45;95.76074;95376.39;;;;
2020/10/10 04:43:28;;;;;;;14.95;10.35;;;;;;;8.39;96.08496;95373.25;;;;
2020/10/10 04:44:30;;;;;;;14.95;10.35;;;;;;;8.39;96.08496;95373.25;;;;
2020/10/10 04:45:32;;;;;;;14.95;10.35;;;;;;;8.39;96.08496;95373.25;;;;
2020/10/10 04:46:33;;;;;;;14.95;10.35;;;;;;;8.39;96.08496;95373.25;;;;
2020/10/10 04:47:34;;;;;;;14.95;10.35;;;;;;;8.39;96.08496;95373.25;;;;
2020/10/10 04:48:35;;;;;;;14.95;10.35;;;;;;;8.39;96.08496;95373.25;;;;
2020/10/10 04:49:35;;;;;;;14.95;10.35;;;;;;;8.39;96.08496;95373.25;;;;
2020/10/10 04:50:36;;;;;;;14.95;10.35;;;;;;;8.39;96.08496;95373.25;;;;
2020/10/10 04:51:39;;;;;;;14.95;10.35;;;;;;;8.39;96.08496;95373.25;;;;
2020/10/10 04:52:40;;;;;;;14.95;10.35;;;;;;;8.39;96.08496;95373.25;;;;
2020/10/10 04:53:40;;;;;;;14.95;10.35;;;;;;;8.39;96.08496;95373.25;;;;
2020/10/10 04:54:41;;;;;;;14.05;10.9;;;;;;;8.49;96.16895;95371.39;;;;
2020/10/10 04:55:43;;;;;;;14.05;10.9;;;;;;;8.49;96.16895;95371.39;;;;
2020/10/10 04:56:45;;;;;;;14.05;10.9;;;;;;;8.49;96.16895;95371.39;;;;
2020/10/10 04:57:45;;;;;;;14.05;10.9;;;;;;;8.49;96.16895;95371.39;;;;
2020/10/10 04:58:46;;;;;;;14.05;10.9;;;;;;;8.49;96.16895;95371.39;;;;
2020/10/10 04:59:46;;;;;;;14.05;10.9;;;;;;;8.49;96.16895;95371.39;;;;
2020/10/10 05:00:47;;;;;;;14.05;10.9;;;;;;;8.49;96.16895;95371.39;;;;
2020/10/10 05:01:48;;;;;;;14.05;10.9;;;;;;;8.49;96.16895;95371.39;;;;
2020/10/10 05:02:49;;;;;;;14.05;10.9;;;;;;;8.49;96.16895;95371.39;;;;
2020/10/10 05:03:50;;;;;;;14.05;10.9;;;;;;;8.49;96.16895;95371.39;;;;
2020/10/10 05:04:51;;;;;;;14.6;10.15;;;;;;;8.6;96.2041;95373.77;;;;
2020/10/10 05:05:52;;;;;;;14.6;10.15;;;;;;;8.6;96.2041;95373.77;;;;
2020/10/10 05:06:57;;;;;;;14.6;10.15;;;;;;;8.6;96.2041;95373.77;;;;
2020/10/10 05:08:04;;;;;;;14.6;10.15;;;;;;;8.6;96.2041;95373.77;;;;
2020/10/10 05:09:08;;;;;;;14.6;10.15;;;;;;;8.6;96.2041;95373.77;;;;
2020/10/10 05:10:12;;;;;;;14.6;10.15;;;;;;;8.6;96.2041;95373.77;;;;
2020/10/10 05:11:14;;;;;;;14.6;10.15;;;;;;;8.6;96.2041;95373.77;;;;
2020/10/10 05:12:22;;;;;;;14.6;10.15;;;;;;;8.6;96.2041;95373.77;;;;
2020/10/10 05:13:24;;;;;;;14.6;10.15;;;;;;;8.6;96.2041;95373.77;;;;
2020/10/10 05:14:26;;;;;;;14.6;10.15;;;;;;;8.6;96.2041;95373.77;;;;
2020/10/10 05:15:27;;;;;;;13.9;8.75;;;;;;;8.52;96.20898;95368.27;;;;
2020/10/10 05:16:27;;;;;;;13.9;8.75;;;;;;;8.52;96.20898;95368.27;;;;
2020/10/10 05:17:29;;;;;;;13.9;8.75;;;;;;;8.52;96.20898;95368.27;;;;
2020/10/10 05:18:30;;;;;;;13.9;8.75;;;;;;;8.52;96.20898;95368.27;;;;
2020/10/10 05:19:32;;;;;;;13.9;8.75;;;;;;;8.52;96.20898;95368.27;;;;
2020/10/10 05:20:33;;;;;;;13.9;8.75;;;;;;;8.52;96.20898;95368.27;;;;
2020/10/10 05:21:41;;;;;;;13.9;8.75;;;;;;;8.52;96.20898;95368.27;;;;
2020/10/10 05:22:42;;;;;;;13.9;8.75;;;;;;;8.52;96.20898;95368.27;;;;
2020/10/10 05:23:43;;;;;;;13.9;8.75;;;;;;;8.52;96.20898;95368.27;;;;
2020/10/10 05:24:44;;;;;;;13.9;8.75;;;;;;;8.52;96.20898;95368.27;;;;
2020/10/10 05:25:51;;;;;;;13.9;8.75;;;;;;;8.52;96.20898;95368.27;;;;
2020/10/10 05:26:54;;;;;;;10.95;8;;;;;;;8.43;96.44238;95370.01;;;;
2020/10/10 05:27:54;;;;;;;10.95;8;;;;;;;8.43;96.44238;95370.01;;;;
2020/10/10 05:28:56;;;;;;;10.95;8;;;;;;;8.43;96.44238;95370.01;;;;
2020/10/10 05:29:58;;;;;;;10.95;8;;;;;;;8.43;96.44238;95370.01;;;;
2020/10/10 05:31:01;;;;;;;10.95;8;;;;;;;8.43;96.44238;95370.01;;;;
2020/10/10 05:32:02;;;;;;;10.95;8;;;;;;;8.43;96.44238;95370.01;;;;
2020/10/10 05:33:02;;;;;;;10.95;8;;;;;;;8.43;96.44238;95370.01;;;;
2020/10/10 05:34:07;;;;;;;10.95;8;;;;;;;8.43;96.44238;95370.01;;;;
2020/10/10 05:35:10;;;;;;;10.95;8;;;;;;;8.43;96.44238;95370.01;;;;
2020/10/10 05:36:10;;;;;;;10.95;8;;;;;;;8.43;96.44238;95370.01;;;;
2020/10/10 05:37:12;;;;;;;11.15;8.2;;;;;;;8.23;96.57813;95377.39;;;;
2020/10/10 05:38:14;;;;;;;11.15;8.2;;;;;;;8.23;96.57813;95377.39;;;;
2020/10/10 05:39:16;;;;;;;11.15;8.2;;;;;;;8.23;96.57813;95377.39;;;;
2020/10/10 05:40:19;;;;;;;11.15;8.2;;;;;;;8.23;96.57813;95377.39;;;;
2020/10/10 05:41:23;;;;;;;11.15;8.2;;;;;;;8.23;96.57813;95377.39;;;;
2020/10/10 05:42:24;;;;;;;11.15;8.2;;;;;;;8.23;96.57813;95377.39;;;;
2020/10/10 05:43:25;;;;;;;11.15;8.2;;;;;;;8.23;96.57813;95377.39;;;;
2020/10/10 05:44:28;;;;;;;11.15;8.2;;;;;;;8.23;96.57813;95377.39;;;;
2020/10/10 05:45:28;;;;;;;11.15;8.2;;;;;;;8.23;96.57813;95377.39;;;;
2020/10/10 05:46:29;;;;;;;11.15;8.2;;;;;;;8.23;96.57813;95377.39;;;;
2020/10/10 05:47:29;;;;;;;10.75;7.95;;;;;;;8.2;96.79395;95384.56;;;;
2020/10/10 05:48:32;;;;;;;10.75;7.95;;;;;;;8.2;96.79395;95384.56;;;;
2020/10/10 05:49:37;;;;;;;10.75;7.95;;;;;;;8.2;96.79395;95384.56;;;;
2020/10/10 05:50:38;;;;;;;10.75;7.95;;;;;;;8.2;96.79395;95384.56;;;;
2020/10/10 05:51:39;;;;;;;10.75;7.95;;;;;;;8.2;96.79395;95384.56;;;;
2020/10/10 05:52:40;;;;;;;10.75;7.95;;;;;;;8.2;96.79395;95384.56;;;;
2020/10/10 05:53:40;;;;;;;10.75;7.95;;;;;;;8.2;96.79395;95384.56;;;;
2020/10/10 05:54:41;;;;;;;10.75;7.95;;;;;;;8.2;96.79395;95384.56;;;;
2020/10/10 05:55:41;;;;;;;10.75;7.95;;;;;;;8.2;96.79395;95384.56;;;;
2020/10/10 05:56:42;;;;;;;10.75;7.95;;;;;;;8.2;96.79395;95384.56;;;;
2020/10/10 05:57:43;;;;;;;10.75;7.95;;;;;;;8.2;96.79395;95384.56;;;;